Time;durP1;ratioP1;P1;durP2;ratioP2;P2;SDS_P1;SDS_P2;PMS_P1;PMS_P2;Temp;Humidity;BMP_temperature;BMP_pressure;BME280_temperature;BME280_humidity;BME280_pressure;Samples;Min_cycle;Max_cycle;Signal;HPM_P1;HPM_P2
2022/11/21 00:02:02;;;;;;;16.45;8.38;;;;;;;12.22;100.00;98191.03;5050450;28;20044;-73
2022/11/21 00:04:28;;;;;;;16.88;7.38;;;;;;;12.35;100.00;98167.22;5051737;28;20033;-74
2022/11/21 00:06:53;;;;;;;19.05;8.65;;;;;;;12.39;100.00;98181.28;5051452;28;20032;-73
2022/11/21 00:09:19;;;;;;;15.63;8.32;;;;;;;12.52;100.00;98156.63;5051061;28;20025;-73
2022/11/21 00:11:50;;;;;;;18.65;7.90;;;;;;;12.49;100.00;98155.38;5051425;28;20059;-73
2022/11/21 00:14:15;;;;;;;12.10;6.95;;;;;;;12.45;100.00;98167.75;5031361;28;20030;-73
2022/11/21 00:16:40;;;;;;;12.90;8.88;;;;;;;12.59;100.00;98136.28;5051478;28;20472;-74
2022/11/21 00:19:06;;;;;;;17.70;8.35;;;;;;;12.69;99.96;98146.00;5051403;28;20472;-74
2022/11/21 00:21:31;;;;;;;15.05;8.82;;;;;;;12.75;99.01;98145.28;5051401;28;20465;-73
2022/11/21 00:23:57;;;;;;;18.45;9.38;;;;;;;12.19;100.00;98144.97;5051068;28;20028;-73
2022/11/21 00:26:22;;;;;;;18.25;8.95;;;;;;;12.12;100.00;98156.06;5050150;28;20029;-73
2022/11/21 00:28:48;;;;;;;13.45;8.82;;;;;;;12.23;100.00;98175.84;5050348;28;20036;-73
2022/11/21 00:31:22;;;;;;;20.35;10.40;;;;;;;12.10;100.00;98166.84;5051201;28;20047;-73
2022/11/21 00:33:47;;;;;;;15.75;10.40;;;;;;;11.82;100.00;98148.38;5051533;28;20040;-74
2022/11/21 00:36:13;;;;;;;21.20;12.68;;;;;;;11.75;100.00;98157.47;5032986;28;20484;-72
2022/11/21 00:38:38;;;;;;;21.80;11.60;;;;;;;11.70;100.00;98179.38;5033421;28;20090;-74
2022/11/21 00:41:04;;;;;;;27.75;12.57;;;;;;;11.41;100.00;98139.69;5032984;28;20040;-74
2022/11/21 00:43:30;;;;;;;21.58;11.13;;;;;;;11.36;100.00;98144.44;5049892;28;20033;-73
2022/11/21 00:45:55;;;;;;;15.55;9.27;;;;;;;11.37;100.00;98164.81;5050179;28;20114;-73
2022/11/21 00:48:21;;;;;;;19.25;12.10;;;;;;;11.40;100.00;98157.69;5033311;28;20486;-73
2022/11/21 00:50:49;;;;;;;19.30;11.93;;;;;;;11.36;100.00;98150.03;5051006;28;20021;-73
2022/11/21 00:53:15;;;;;;;18.75;10.80;;;;;;;11.38;100.00;98156.06;5050972;28;20108;-73
2022/11/21 00:55:41;;;;;;;22.25;12.15;;;;;;;11.41;100.00;98137.72;5033189;28;20036;-73
2022/11/21 00:58:06;;;;;;;19.70;11.68;;;;;;;11.47;100.00;98147.41;5050741;28;20028;-73
2022/11/21 01:00:32;;;;;;;17.33;10.70;;;;;;;11.54;100.00;98193.53;5054415;28;20464;-73
2022/11/21 01:02:57;;;;;;;19.02;10.73;;;;;;;11.52;100.00;98200.31;5036658;28;20460;-73
2022/11/21 01:05:23;;;;;;;20.33;11.75;;;;;;;11.54;100.00;98211.13;5036368;28;20028;-73
2022/11/21 01:07:48;;;;;;;15.05;8.77;;;;;;;11.59;100.00;98204.41;5054581;28;20029;-74
2022/11/21 01:10:14;;;;;;;19.85;11.13;;;;;;;11.66;100.00;98227.75;5054271;28;20372;-73
2022/11/21 01:12:39;;;;;;;18.92;11.05;;;;;;;11.69;100.00;98205.78;5052386;28;20033;-73
2022/11/21 01:15:05;;;;;;;13.35;10.07;;;;;;;11.80;100.00;98189.97;5054572;28;20043;-74
2022/11/21 01:17:32;;;;;;;16.52;9.10;;;;;;;11.78;100.00;98203.53;5054001;28;20033;-73
2022/11/21 01:19:57;;;;;;;17.20;11.40;;;;;;;11.79;100.00;98217.19;5053808;28;20069;-73
2022/11/21 01:22:23;;;;;;;22.80;10.05;;;;;;;11.89;100.00;98214.94;5054533;28;20055;-74
2022/11/21 01:24:49;;;;;;;17.25;10.00;;;;;;;11.81;100.00;98199.97;5036250;28;20491;-73
2022/11/21 01:27:14;;;;;;;20.88;10.25;;;;;;;11.89;100.00;98195.31;5035733;28;20545;-74
2022/11/21 01:29:39;;;;;;;15.82;9.95;;;;;;;11.93;100.00;98208.19;5053951;28;20044;-73
2022/11/21 01:32:05;;;;;;;15.18;9.75;;;;;;;11.84;100.00;98202.06;5035963;28;20024;-73
2022/11/21 01:34:30;;;;;;;18.80;10.90;;;;;;;11.80;100.00;98187.16;5036096;28;20029;-73
2022/11/21 01:36:56;;;;;;;16.35;10.52;;;;;;;11.71;100.00;98169.81;5036108;28;20020;-73
2022/11/21 01:39:21;;;;;;;17.17;11.27;;;;;;;11.74;100.00;98166.25;5053789;28;20511;-73
2022/11/21 01:41:47;;;;;;;16.67;11.48;;;;;;;11.77;100.00;98157.91;5049243;28;20104;-74
2022/11/21 01:44:20;;;;;;;23.50;12.57;;;;;;;11.69;100.00;98146.94;5035853;28;20024;-73
2022/11/21 01:46:46;;;;;;;16.00;11.32;;;;;;;11.66;100.00;98151.34;5035777;28;20045;-74
2022/11/21 01:49:17;;;;;;;19.48;11.50;;;;;;;11.60;100.00;98150.84;5053679;28;20053;-74
2022/11/21 01:52:18;;;;;;;20.55;11.43;;;;;;;11.55;100.00;98119.53;5054012;28;20103;-73
2022/11/21 01:54:47;;;;;;;20.77;12.55;;;;;;;11.45;100.00;98116.19;5008260;28;20055;-73
2022/11/21 01:57:29;;;;;;;22.05;12.65;;;;;;;11.51;100.00;98120.25;5052340;28;20032;-70
2022/11/21 02:00:06;;;;;;;17.05;11.93;;;;;;;11.53;100.00;98119.91;5049480;28;20065;-74
2022/11/21 02:02:35;;;;;;;21.00;11.40;;;;;;;11.72;100.00;98107.81;5035601;28;20057;-74
2022/11/21 02:05:04;;;;;;;14.40;10.40;;;;;;;11.83;100.00;98101.56;5053456;28;20131;-73
2022/11/21 02:07:32;;;;;;;16.65;10.07;;;;;;;11.82;100.00;98078.31;5053612;28;20020;-74
2022/11/21 02:10:00;;;;;;;13.20;9.27;;;;;;;11.98;100.00;98080.97;5050930;28;20025;-73
2022/11/21 02:12:33;;;;;;;13.27;8.63;;;;;;;12.14;100.00;98088.44;5035242;28;20039;-73
2022/11/21 02:14:59;;;;;;;16.42;8.98;;;;;;;12.12;100.00;98086.00;5053300;28;20381;-73
2022/11/21 02:17:27;;;;;;;17.90;8.48;;;;;;;12.29;100.00;98086.63;5035304;28;20483;-73
2022/11/21 02:19:56;;;;;;;16.80;8.05;;;;;;;12.36;100.00;98081.91;5052875;28;20514;-73
2022/11/21 02:22:37;;;;;;;11.23;8.07;;;;;;;12.39;100.00;98054.31;5053205;28;20108;-74
2022/11/21 02:25:07;;;;;;;14.05;7.82;;;;;;;12.50;100.00;98058.84;5052057;28;20039;-73
2022/11/21 02:27:33;;;;;;;17.02;8.70;;;;;;;12.25;100.00;98068.94;5050852;28;20028;-74
2022/11/21 02:30:04;;;;;;;17.20;10.10;;;;;;;12.08;100.00;98085.16;5053000;28;20048;-73
2022/11/21 02:32:35;;;;;;;15.63;9.43;;;;;;;11.81;100.00;98093.53;5035095;28;20108;-73
2022/11/21 02:35:01;;;;;;;20.25;11.18;;;;;;;11.66;100.00;98084.91;5052547;28;20075;-73
2022/11/21 02:37:26;;;;;;;16.95;12.05;;;;;;;11.64;100.00;98073.28;5052768;28;20501;-73
2022/11/21 02:39:52;;;;;;;25.13;12.32;;;;;;;11.72;100.00;98071.38;5033127;28;20029;-73
2022/11/21 02:42:30;;;;;;;18.80;9.68;;;;;;;11.73;100.00;98061.81;5052578;28;20522;-73
2022/11/21 02:45:13;;;;;;;17.92;12.30;;;;;;;11.56;100.00;98065.94;5052747;28;20411;-73
2022/11/21 02:47:40;;;;;;;24.23;15.80;;;;;;;11.63;100.00;98052.06;5052692;28;20044;-73
2022/11/21 02:50:15;;;;;;;36.75;16.52;;;;;;;11.92;100.00;98060.88;5052486;28;20017;-72
2022/11/21 02:52:41;;;;;;;20.63;13.60;;;;;;;12.06;100.00;98049.09;5052659;28;20020;-73
2022/11/21 02:55:07;;;;;;;20.77;12.27;;;;;;;12.16;100.00;98042.00;5033134;28;20538;-73
2022/11/21 02:57:33;;;;;;;24.13;12.65;;;;;;;11.93;100.00;98031.66;5052295;28;20024;-73
2022/11/21 02:59:58;;;;;;;24.38;13.32;;;;;;;11.78;100.00;98049.47;5052549;28;20029;-73
2022/11/21 03:02:24;;;;;;;17.35;10.52;;;;;;;11.86;100.00;98054.00;5052542;28;20033;-73
2022/11/21 03:04:50;;;;;;;16.75;9.77;;;;;;;12.06;100.00;98051.06;5049697;28;20188;-73
2022/11/21 03:07:15;;;;;;;15.98;10.43;;;;;;;11.66;100.00;98047.72;5050956;28;20041;-73
2022/11/21 03:09:41;;;;;;;16.50;11.25;;;;;;;11.73;100.00;98024.59;5052301;28;20028;-73
2022/11/21 03:12:09;;;;;;;17.30;11.02;;;;;;;11.85;100.00;98046.78;5051960;28;20083;-73
2022/11/21 03:14:36;;;;;;;14.05;9.98;;;;;;;11.84;100.00;98058.34;5050930;28;20137;-73
2022/11/21 03:17:02;;;;;;;13.73;9.63;;;;;;;11.77;100.00;98053.47;5033897;28;20041;-72
2022/11/21 03:19:28;;;;;;;21.05;10.98;;;;;;;11.55;100.00;98053.13;5052019;28;20070;-73
2022/11/21 03:21:54;;;;;;;15.32;11.25;;;;;;;11.56;100.00;98049.13;5049692;28;20021;-73
2022/11/21 03:24:19;;;;;;;18.52;10.57;;;;;;;11.62;100.00;98056.06;5052025;28;20052;-73
2022/11/21 03:26:45;;;;;;;19.45;11.15;;;;;;;11.49;100.00;98066.63;5032377;28;20072;-73
2022/11/21 03:29:10;;;;;;;18.92;12.40;;;;;;;11.09;100.00;98049.19;5052138;28;20029;-74
2022/11/21 03:31:36;;;;;;;16.63;10.73;;;;;;;10.82;100.00;98042.72;5051974;28;20344;-73
2022/11/21 03:34:01;;;;;;;18.85;11.15;;;;;;;11.00;100.00;98029.06;5051109;28;20025;-73
2022/11/21 03:36:27;;;;;;;17.55;10.95;;;;;;;10.95;100.00;98037.75;5028119;28;20450;-74
2022/11/21 03:38:55;;;;;;;19.20;10.57;;;;;;;10.97;100.00;98042.97;5033981;28;20044;-73
2022/11/21 03:41:31;;;;;;;18.27;11.23;;;;;;;10.98;100.00;98048.22;5051695;28;20037;-73
2022/11/21 03:44:05;;;;;;;17.45;9.88;;;;;;;11.19;100.00;98035.75;5033841;28;20033;-73
2022/11/21 03:46:33;;;;;;;19.38;10.02;;;;;;;11.27;100.00;98022.69;5050674;28;20170;-73
2022/11/21 03:48:59;;;;;;;14.80;10.20;;;;;;;11.17;100.00;98010.97;5032428;28;20048;-73
2022/11/21 03:51:25;;;;;;;18.23;11.20;;;;;;;11.13;100.00;98026.06;5033760;28;20025;-73
2022/11/21 03:53:50;;;;;;;19.48;11.18;;;;;;;11.14;100.00;98028.47;5061620;28;20033;-73
2022/11/21 03:56:16;;;;;;;16.48;10.07;;;;;;;11.03;100.00;97989.13;5053330;28;20024;-72
2022/11/21 03:58:42;;;;;;;14.75;5.43;;;;;;;10.97;100.00;98007.41;5033900;28;20032;-73
2022/11/21 04:01:08;;;;;;;16.08;6.70;;;;;;;11.12;100.00;98002.06;5049491;28;20025;-72
2022/11/21 04:03:34;;;;;;;11.10;5.38;;;;;;;11.20;100.00;98001.81;5032468;28;20029;-73
2022/11/21 04:06:00;;;;;;;13.57;5.68;;;;;;;11.20;100.00;97987.00;5051596;28;20056;-73
2022/11/21 04:08:26;;;;;;;9.25;4.82;;;;;;;11.17;100.00;98008.16;5051396;28;20064;-73
2022/11/21 04:10:53;;;;;;;15.57;6.10;;;;;;;11.21;100.00;98014.63;5050808;28;20021;-72
2022/11/21 04:13:19;;;;;;;17.92;6.93;;;;;;;11.43;100.00;98023.34;5029927;28;20437;-73
2022/11/21 04:15:44;;;;;;;17.42;5.47;;;;;;;11.57;100.00;98033.16;5051425;28;20107;-73
2022/11/21 04:18:10;;;;;;;12.90;5.53;;;;;;;11.54;100.00;98026.31;5048556;28;20033;-73
2022/11/21 04:20:36;;;;;;;18.20;5.72;;;;;;;11.55;100.00;98001.94;5051099;28;20072;-73
2022/11/21 04:23:03;;;;;;;13.68;6.18;;;;;;;11.54;100.00;98001.13;5032157;28;20029;-73
2022/11/21 04:25:29;;;;;;;11.75;5.22;;;;;;;11.42;100.00;98001.31;5051173;28;20029;-73
2022/11/21 04:27:58;;;;;;;16.42;8.07;;;;;;;11.23;100.00;98011.44;5032338;28;20091;-73
2022/11/21 04:30:24;;;;;;;12.57;6.90;;;;;;;11.19;100.00;97968.59;5033647;28;20122;-73
2022/11/21 04:32:51;;;;;;;16.73;8.65;;;;;;;10.91;100.00;97989.34;5049155;28;20488;-73
2022/11/21 04:35:16;;;;;;;22.38;9.60;;;;;;;11.15;100.00;97974.13;5055085;28;20063;-73
2022/11/21 04:37:42;;;;;;;16.80;9.50;;;;;;;11.01;100.00;98002.69;5037202;28;20025;-73
2022/11/21 04:40:08;;;;;;;25.67;12.18;;;;;;;10.93;100.00;97996.19;5054951;28;20025;-73
2022/11/21 04:42:33;;;;;;;18.05;10.63;;;;;;;10.75;100.00;97981.88;5052970;28;20029;-73
2022/11/21 04:44:59;;;;;;;39.60;13.70;;;;;;;10.69;100.00;97971.38;5035858;28;20114;-72
2022/11/21 04:47:24;;;;;;;50.22;12.40;;;;;;;10.81;100.00;97994.38;5054739;28;20048;-72
2022/11/21 04:49:49;;;;;;;141.32;16.73;;;;;;;10.84;100.00;98015.19;5053984;28;20353;-74
2022/11/21 04:52:15;;;;;;;104.82;14.00;;;;;;;10.75;100.00;98046.22;5054843;28;20534;-73
2022/11/21 04:54:40;;;;;;;39.13;13.38;;;;;;;10.79;100.00;98018.28;5052897;28;20036;-73
2022/11/21 04:57:06;;;;;;;44.55;14.88;;;;;;;10.79;100.00;98041.47;5054592;28;20029;-73
2022/11/21 04:59:31;;;;;;;53.70;13.48;;;;;;;10.78;100.00;98033.44;5053565;28;20032;-73
2022/11/21 05:01:57;;;;;;;63.00;15.73;;;;;;;10.79;100.00;98033.09;5054692;28;20025;-73
2022/11/21 05:04:22;;;;;;;86.85;17.50;;;;;;;10.56;100.00;98035.03;5053638;28;20396;-73
2022/11/21 05:06:48;;;;;;;55.08;15.05;;;;;;;10.53;100.00;98025.41;5054443;28;20332;-73
2022/11/21 05:09:13;;;;;;;42.50;13.18;;;;;;;10.50;100.00;98032.56;5054492;28;20451;-73
2022/11/21 05:14:25;;;;;;;29.00;14.07;;;;;;;10.56;100.00;98024.69;5053377;28;20032;-74
2022/11/21 05:16:51;;;;;;;38.60;14.40;;;;;;;10.59;100.00;98017.53;5052495;28;20031;-74
2022/11/21 05:19:17;;;;;;;44.20;13.70;;;;;;;10.51;100.00;98011.00;5052903;28;20086;-74
2022/11/21 05:21:42;;;;;;;28.48;13.73;;;;;;;10.33;100.00;98008.63;5053036;28;20032;-74
2022/11/21 05:24:08;;;;;;;36.20;13.18;;;;;;;10.21;100.00;98012.38;5036272;28;20024;-74
2022/11/21 05:26:33;;;;;;;18.38;12.98;;;;;;;10.37;100.00;98020.69;5049893;28;20032;-74
2022/11/21 05:28:59;;;;;;;25.30;13.02;;;;;;;10.21;100.00;98036.75;5049203;28;20032;-73
2022/11/21 05:31:24;;;;;;;39.63;15.15;;;;;;;10.12;100.00;98036.94;5034649;28;20040;-73
2022/11/21 05:33:50;;;;;;;37.30;18.33;;;;;;;10.14;100.00;98028.19;5053591;28;20021;-74
2022/11/21 05:36:15;;;;;;;21.70;13.55;;;;;;;10.05;100.00;98025.63;5053687;28;20471;-74
2022/11/21 05:38:41;;;;;;;23.15;13.43;;;;;;;10.11;100.00;98036.16;5053821;28;20039;-73
2022/11/21 05:41:07;;;;;;;25.20;13.82;;;;;;;10.15;100.00;98033.44;5034868;28;20036;-73
2022/11/21 05:43:48;;;;;;;20.20;12.45;;;;;;;10.05;100.00;98034.00;5033802;28;20036;-73
2022/11/21 05:46:20;;;;;;;21.77;12.27;;;;;;;10.18;100.00;98043.88;5051355;28;20152;-73
2022/11/21 05:48:48;;;;;;;211.00;59.25;;;;;;;10.39;100.00;98048.28;5034055;28;20044;-73
2022/11/21 05:51:15;;;;;;;48.25;20.45;;;;;;;10.51;100.00;98058.50;5052975;28;20029;-72
2022/11/21 05:53:41;;;;;;;31.42;17.77;;;;;;;10.58;100.00;98061.47;5044343;28;20416;-74
2022/11/21 05:56:11;;;;;;;80.88;18.48;;;;;;;10.74;100.00;98066.16;5031527;28;20106;-72
2022/11/21 05:58:38;;;;;;;29.02;14.43;;;;;;;10.87;100.00;98089.97;5047530;28;20544;-74
2022/11/21 06:01:05;;;;;;;30.65;17.20;;;;;;;10.57;100.00;98085.00;5048188;28;20476;-76
2022/11/21 06:03:34;;;;;;;31.88;17.88;;;;;;;10.61;100.00;98076.66;5033035;28;20079;-71
2022/11/21 06:06:05;;;;;;;23.98;16.25;;;;;;;10.71;100.00;98084.47;5048912;28;20029;-73
2022/11/21 06:08:41;;;;;;;24.58;17.92;;;;;;;10.81;100.00;98077.47;5047515;28;20033;-72
2022/11/21 06:11:09;;;;;;;23.75;17.08;;;;;;;11.03;100.00;98077.84;5048081;28;20029;-72
2022/11/21 06:13:35;;;;;;;30.55;16.98;;;;;;;10.97;100.00;98088.53;5049560;28;20024;-71
2022/11/21 06:16:01;;;;;;;29.67;17.10;;;;;;;10.83;100.00;98077.91;5041254;28;20520;-73
2022/11/21 06:18:28;;;;;;;27.95;18.25;;;;;;;10.89;100.00;98067.22;5044743;28;20070;-73
2022/11/21 06:20:59;;;;;;;28.35;19.55;;;;;;;11.07;100.00;98056.34;5047114;28;20507;-72
2022/11/21 06:23:24;;;;;;;27.13;16.58;;;;;;;11.30;100.00;98055.53;5042117;28;20037;-70
2022/11/21 06:25:56;;;;;;;24.38;14.77;;;;;;;11.56;100.00;98051.16;5023845;28;20128;-69
2022/11/21 06:28:21;;;;;;;22.15;12.68;;;;;;;11.66;100.00;98086.91;5040299;28;20028;-71
2022/11/21 06:30:50;;;;;;;20.33;11.88;;;;;;;11.57;100.00;98080.75;5032803;28;20033;-71
2022/11/21 06:33:16;;;;;;;18.08;11.05;;;;;;;11.69;100.00;98093.75;5020115;28;20055;-70
2022/11/21 06:35:42;;;;;;;24.45;11.57;;;;;;;11.57;100.00;98089.97;5045790;28;20032;-69
2022/11/21 06:38:08;;;;;;;17.42;11.30;;;;;;;11.51;100.00;98085.88;5047106;28;20112;-70
2022/11/21 06:40:34;;;;;;;18.25;12.18;;;;;;;11.57;100.00;98075.16;5041652;28;20070;-70
2022/11/21 06:43:00;;;;;;;18.17;11.45;;;;;;;11.61;100.00;98062.84;5048100;28;20109;-73
2022/11/21 06:45:26;;;;;;;24.52;12.05;;;;;;;11.87;100.00;98077.19;5048661;28;20025;-74
2022/11/21 06:47:52;;;;;;;19.27;10.85;;;;;;;12.16;100.00;98070.03;5044995;28;20079;-74
2022/11/21 06:50:17;;;;;;;17.98;11.50;;;;;;;12.21;100.00;98074.50;5046639;28;20407;-75
2022/11/21 06:52:43;;;;;;;20.73;12.15;;;;;;;12.39;99.58;98071.94;5031222;28;20033;-73
2022/11/21 06:55:09;;;;;;;18.40;12.23;;;;;;;12.47;98.69;98061.59;5049092;28;20146;-72
2022/11/21 06:57:35;;;;;;;23.40;10.80;;;;;;;12.58;98.86;98059.72;5047945;28;20086;-75
2022/11/21 07:00:00;;;;;;;13.68;8.55;;;;;;;12.63;97.20;98062.22;5048535;28;20037;-78
2022/11/21 07:02:26;;;;;;;18.02;10.00;;;;;;;12.53;95.60;98057.28;5048005;28;20550;-72
2022/11/21 07:04:52;;;;;;;19.00;10.30;;;;;;;12.58;95.14;98064.56;5030627;28;20039;-75
2022/11/21 07:07:18;;;;;;;24.23;11.27;;;;;;;12.71;95.79;98065.91;5029551;28;20492;-76
2022/11/21 07:09:43;;;;;;;26.52;11.10;;;;;;;12.78;95.70;98059.56;5028119;28;20139;-75
2022/11/21 07:14:53;;;;;;;17.92;10.27;;;;;;;12.90;97.56;98061.28;5042245;28;20569;-72
2022/11/21 07:17:18;;;;;;;16.35;9.10;;;;;;;13.13;97.61;98075.16;5020621;28;20056;-72
2022/11/21 07:19:44;;;;;;;25.17;15.88;;;;;;;13.16;95.61;98063.13;5029626;28;20028;-72
2022/11/21 07:22:09;;;;;;;15.65;8.65;;;;;;;13.24;92.08;98078.03;5048035;28;20033;-72
2022/11/21 07:24:35;;;;;;;29.98;13.98;;;;;;;13.32;92.41;98057.25;5038551;28;20413;-72
2022/11/21 07:27:01;;;;;;;16.17;9.20;;;;;;;13.41;87.66;98061.75;5039705;28;20495;-71
2022/11/21 07:29:26;;;;;;;12.73;6.13;;;;;;;13.55;77.99;98067.50;5037229;28;20037;-73
2022/11/21 07:31:53;;;;;;;13.05;4.28;;;;;;;13.73;76.08;98078.06;5039761;28;20040;-74
2022/11/21 07:34:18;;;;;;;10.07;3.88;;;;;;;13.82;75.69;98067.28;5020961;28;20040;-70
2022/11/21 07:36:44;;;;;;;11.32;4.47;;;;;;;13.87;76.85;98077.38;5027995;28;20105;-76
2022/11/21 07:39:09;;;;;;;9.65;4.00;;;;;;;13.95;74.81;98076.22;5028744;28;20424;-76
2022/11/21 07:41:35;;;;;;;14.82;4.88;;;;;;;14.12;76.14;98076.72;5031005;28;20036;-72
2022/11/21 07:44:00;;;;;;;15.20;7.72;;;;;;;14.25;80.62;98074.38;5029362;28;20440;-75
2022/11/21 07:46:26;;;;;;;20.05;7.72;;;;;;;14.53;78.83;98079.31;5042883;28;20757;-74
2022/11/21 07:48:51;;;;;;;4.47;1.60;;;;;;;15.04;61.76;98089.94;5049927;28;20028;-75
2022/11/21 07:51:17;;;;;;;9.68;3.38;;;;;;;15.36;63.88;98078.72;5023251;28;20032;-76
2022/11/21 07:53:42;;;;;;;5.32;2.08;;;;;;;15.48;61.92;98102.91;5042633;28;20033;-75
2022/11/21 07:56:10;;;;;;;6.55;3.05;;;;;;;15.66;62.57;98093.63;5042172;28;20029;-75
2022/11/21 07:58:36;;;;;;;5.63;1.52;;;;;;;15.94;59.36;98094.84;5047008;28;20044;-77
2022/11/21 08:01:05;;;;;;;6.65;1.77;;;;;;;16.38;56.29;98099.16;5028613;28;20036;-72
2022/11/21 08:03:32;;;;;;;7.13;3.38;;;;;;;16.75;55.72;98105.50;5047153;28;20108;-73
2022/11/21 08:06:01;;;;;;;6.47;2.10;;;;;;;17.01;56.49;98094.06;5041974;28;20040;-72
2022/11/21 08:08:27;;;;;;;8.30;2.15;;;;;;;17.20;55.25;98099.22;5033730;28;20692;-71
2022/11/21 08:10:52;;;;;;;6.28;2.33;;;;;;;17.30;51.54;98111.66;5036350;28;20032;-70
2022/11/21 08:13:18;;;;;;;10.68;6.25;;;;;;;17.52;52.18;98112.31;5035503;28;20028;-70
2022/11/21 08:15:43;;;;;;;5.05;1.65;;;;;;;17.65;51.07;98111.81;5051017;28;20036;-71
2022/11/21 08:18:14;;;;;;;16.00;11.75;;;;;;;17.89;50.72;98126.94;5036132;28;20028;-70
2022/11/21 08:20:40;;;;;;;8.77;3.80;;;;;;;18.01;48.71;98122.00;5053870;28;20083;-71
2022/11/21 08:23:06;;;;;;;8.13;3.40;;;;;;;18.20;48.61;98120.63;5054579;28;20025;-70
2022/11/21 08:25:35;;;;;;;7.30;4.68;;;;;;;18.12;48.94;98122.75;5054379;28;20491;-73
2022/11/21 08:28:01;;;;;;;6.32;1.27;;;;;;;18.19;45.84;98138.84;5054552;28;20112;-73
2022/11/21 08:30:27;;;;;;;5.80;1.67;;;;;;;18.03;48.22;98125.25;5054425;28;20028;-70
2022/11/21 08:32:52;;;;;;;6.72;2.25;;;;;;;18.05;50.03;98123.63;5052978;28;20036;-70
2022/11/21 08:35:18;;;;;;;9.50;2.45;;;;;;;17.78;48.33;98126.25;5040900;28;20026;-71
2022/11/21 08:37:44;;;;;;;6.22;2.70;;;;;;;17.64;49.67;98127.97;5036847;28;20033;-70
2022/11/21 08:40:10;;;;;;;13.25;2.25;;;;;;;17.57;48.04;98144.19;5039321;28;20029;-71
2022/11/21 08:42:36;;;;;;;3.00;1.52;;;;;;;17.37;49.46;98139.88;5016883;28;20383;-70
2022/11/21 08:45:05;;;;;;;4.63;1.65;;;;;;;17.29;49.26;98140.34;5030102;28;20393;-71
2022/11/21 08:47:34;;;;;;;4.88;1.70;;;;;;;17.20;49.80;98132.34;5054085;28;20504;-71
2022/11/21 08:49:59;;;;;;;5.88;1.67;;;;;;;17.21;50.06;98137.56;5050952;28;20089;-71
2022/11/21 08:52:25;;;;;;;7.75;1.45;;;;;;;17.03;49.29;98126.34;5035672;28;20383;-70
2022/11/21 08:54:50;;;;;;;2.38;1.88;;;;;;;17.03;48.90;98128.38;5036825;28;20036;-70
2022/11/21 08:57:16;;;;;;;5.43;4.07;;;;;;;16.95;50.32;98119.91;5054756;28;20044;-71
2022/11/21 08:59:41;;;;;;;5.85;3.55;;;;;;;17.00;49.50;98126.38;5053075;28;20033;-71
2022/11/21 09:02:09;;;;;;;6.47;4.03;;;;;;;17.03;51.44;98123.53;5053880;28;20404;-70
2022/11/21 09:04:35;;;;;;;3.30;2.35;;;;;;;17.01;48.58;98120.31;5054405;28;20029;-71
2022/11/21 09:07:00;;;;;;;1.80;1.50;;;;;;;17.02;50.31;98115.47;5054451;28;20025;-71
2022/11/21 09:09:26;;;;;;;3.90;0.90;;;;;;;17.05;48.78;98114.66;5053801;28;20024;-72
2022/11/21 09:11:52;;;;;;;2.47;1.48;;;;;;;17.06;48.77;98110.59;5053500;28;20039;-72
2022/11/21 09:19:46;;;;;;;6.63;1.80;;;;;;;17.29;46.24;98112.88;5050231;28;20048;-72
2022/11/21 09:22:11;;;;;;;8.43;6.95;;;;;;;17.33;46.89;98105.19;5022993;28;20033;-71
2022/11/21 09:24:37;;;;;;;7.07;3.83;;;;;;;17.26;46.57;98108.88;5020996;28;20459;-71
2022/11/21 09:27:02;;;;;;;5.38;3.90;;;;;;;17.26;45.94;98110.88;5053810;28;20032;-71
2022/11/21 09:29:28;;;;;;;2.58;2.20;;;;;;;17.22;46.48;98110.13;5054017;28;20033;-71
2022/11/21 09:31:53;;;;;;;11.65;4.53;;;;;;;17.19;46.96;98105.28;5054007;28;20094;-71
2022/11/21 09:34:19;;;;;;;3.85;1.67;;;;;;;17.16;46.35;98114.56;5035467;28;20079;-70
2022/11/21 09:36:44;;;;;;;5.97;2.30;;;;;;;17.23;46.06;98114.53;5034809;28;20036;-71
2022/11/21 09:39:10;;;;;;;3.00;2.50;;;;;;;17.30;47.12;98119.34;5053017;28;20036;-72
2022/11/21 09:41:52;;;;;;;5.50;2.67;;;;;;;17.59;44.93;98107.81;5024349;28;20037;-72
2022/11/21 09:44:39;;;;;;;2.60;1.13;;;;;;;18.16;43.85;98108.56;5053278;28;20032;-71
2022/11/21 09:47:26;;;;;;;4.53;1.60;;;;;;;18.41;44.39;98107.50;5051923;28;20048;-76
2022/11/21 09:49:57;;;;;;;2.28;0.80;;;;;;;18.51;43.67;98100.91;5035195;28;20059;-73
2022/11/21 09:52:46;;;;;;;7.30;2.90;;;;;;;18.47;48.68;98088.84;5053284;28;20033;-74
2022/11/21 09:55:33;;;;;;;21.85;4.50;;;;;;;18.16;52.09;98109.38;5038731;28;20064;-75
2022/11/21 09:58:05;;;;;;;6.82;3.15;;;;;;;17.99;52.41;98113.97;5045067;28;20547;-74
2022/11/21 10:00:31;;;;;;;3.88;2.33;;;;;;;17.74;54.01;98120.63;5048457;28;20029;-76
2022/11/21 10:02:58;;;;;;;10.38;3.10;;;;;;;17.14;55.14;98129.13;5052448;28;20037;-73
2022/11/21 10:05:48;;;;;;;6.63;2.53;;;;;;;16.82;57.67;98153.44;5035333;28;20039;-72
2022/11/21 10:08:16;;;;;;;10.70;3.25;;;;;;;16.57;59.31;98159.19;5028581;28;20033;-73
2022/11/21 10:10:53;;;;;;;6.75;2.40;;;;;;;16.39;61.68;98160.03;5033574;28;20116;-72
2022/11/21 10:13:42;;;;;;;9.07;4.22;;;;;;;16.35;63.35;98158.41;5041970;28;20021;-73
2022/11/21 10:16:22;;;;;;;10.57;3.83;;;;;;;16.32;65.29;98176.16;5043935;28;20095;-73
2022/11/21 10:19:04;;;;;;;7.88;3.00;;;;;;;16.35;66.36;98173.34;5045268;28;20112;-72
2022/11/21 10:21:38;;;;;;;6.50;3.35;;;;;;;16.31;63.61;98172.56;5046614;28;20039;-72
2022/11/21 10:24:30;;;;;;;7.53;3.55;;;;;;;16.07;62.16;98169.38;5048284;28;20040;-72
2022/11/21 10:27:02;;;;;;;2.55;2.35;;;;;;;15.97;61.94;98182.25;5046722;28;20041;-71
2022/11/21 10:29:36;;;;;;;4.10;1.08;;;;;;;15.84;62.20;98176.19;5044731;28;20083;-75
2022/11/21 10:32:29;;;;;;;5.38;2.22;;;;;;;15.92;61.86;98165.75;5030344;28;20541;-74
2022/11/21 10:35:00;;;;;;;3.38;2.25;;;;;;;15.67;62.44;98160.06;5043620;28;20060;-74
2022/11/21 10:37:38;;;;;;;2.25;1.80;;;;;;;15.43;62.66;98157.63;5037781;28;20089;-74
2022/11/21 10:40:22;;;;;;;6.25;3.40;;;;;;;15.35;64.61;98160.84;5031576;28;20064;-74
2022/11/21 10:46:03;;;;;;;7.60;2.35;;;;;;;15.00;62.32;98161.13;5045114;28;20052;-73
2022/11/21 10:48:29;;;;;;;5.93;5.43;;;;;;;15.10;62.94;98170.81;5029740;28;20036;-71
2022/11/21 10:51:16;;;;;;;5.22;4.72;;;;;;;15.23;64.18;98176.91;5048853;28;20055;-75
2022/11/21 10:56:26;;;;;;;8.43;3.20;;;;;;;15.14;62.85;98184.91;5052606;28;20035;-72
2022/11/21 10:58:58;;;;;;;3.25;2.95;;;;;;;15.42;62.37;98180.56;5030491;28;20625;-72
2022/11/21 11:01:30;;;;;;;6.47;3.22;;;;;;;15.46;60.90;98181.38;5048399;28;20037;-74
2022/11/21 11:04:11;;;;;;;4.57;3.28;;;;;;;15.60;59.21;98174.94;5041181;28;20033;-75
2022/11/21 11:06:42;;;;;;;4.72;2.95;;;;;;;15.66;60.00;98175.34;5041801;28;20062;-74
2022/11/21 11:09:27;;;;;;;2.80;2.60;;;;;;;15.66;60.41;98186.63;5047788;28;20449;-74
2022/11/21 11:12:12;;;;;;;5.38;2.88;;;;;;;15.48;61.72;98187.41;5030084;28;20029;-74
2022/11/21 11:14:38;;;;;;;1.83;1.55;;;;;;;15.38;61.97;98182.56;5023894;28;20124;-75
2022/11/21 11:17:03;;;;;;;6.00;2.92;;;;;;;15.33;62.72;98188.59;5042186;28;20498;-74
2022/11/21 11:19:29;;;;;;;4.75;4.22;;;;;;;15.25;62.08;98190.56;5037296;28;20021;-75
2022/11/21 11:21:55;;;;;;;10.40;8.85;;;;;;;15.18;62.14;98188.53;5029505;28;20039;-72
2022/11/21 11:24:26;;;;;;;9.60;6.70;;;;;;;14.90;62.83;98178.78;5028414;28;20029;-72
2022/11/21 11:26:58;;;;;;;;;;;;;;;15.06;63.40;98200.16;5045225;28;20024;-74
2022/11/21 11:29:29;;;;;;;4.82;2.63;;;;;;;14.85;64.34;98196.88;5038862;28;20011;-73
2022/11/21 11:31:57;;;;;;;3.85;2.33;;;;;;;15.04;64.51;98202.56;5022979;28;20380;-73
2022/11/21 11:34:40;;;;;;;5.88;2.25;;;;;;;14.91;65.39;98213.41;5038775;28;20036;-73
2022/11/21 11:37:40;;;;;;;2.20;1.90;;;;;;;14.85;63.42;98221.41;5043399;28;20029;-73
2022/11/21 11:40:27;;;;;;;2.92;1.38;;;;;;;14.81;63.88;98215.75;5026812;28;20481;-76
2022/11/21 11:49:12;;;;;;;5.57;1.92;;;;;;;14.23;63.42;98235.06;5047932;28;20071;-74